オークランド の空港の天気 - METARとTAF

オークランド国際空港 ( NZAA / AKL ) - ニュージーランド オークランド|オークランド
飛行場実況気象(Metar)
観測時間10/02 03:30 NZDT (10/01 14:30 UTC)
風向・風速北東 1m/s
視程3200m
天気現象散在した霧
なし
気温9℃
湿度93%
気圧1029hPa
METARNZAA 011430Z AUTO 05001KT 3200 BCFG NCD 09/08 Q1029 BECMG 9999 NSW
過去の天気等 Google飛行場航空写真 Wunderground天気予報

過去48時間のMETAR

飛行場予報(TAF)
発表時間: 10/02 00:06 NZDT (10/01 11:06 UTC)
予報対象時間: 2日1時 NZDT ~ 3日1時 NZDT
風向・風速南南東 3m/s
視程10km以上
少しの雲 雲底高度 1520m
2日10時 NZDT ~ 2日16時 NZDT に一時的に
視程7000m
天気現象しゅう雨
2日11時 NZDT から
風向・風速北北東 5m/s
視程10km以上
全天の4割程度の雲 雲底高度 1520m
TAF NZAA 011106Z 0112/0212 15005KT 9999 FEW050
TEMPO 0121/0203 7000 SHRA
FM012200 02010KT 9999 SCT050